To NAV CANADA Home Page Login to a new session Search on AWWS site Disclaimer Vers la page française équivalente Tips FAQ What's new on the site To the Forecasts and Observations / NOTAM section To "File a Flight Plan" website Publications and other links Update of the User's profile FIC Telephone Numbers My Weather Data Folder Route Weather Data Regional Weather Data Local Weather Data To the Forecasts and Observations / NOTAM section
Request Generated 10/21/2018 at 05:51:05 UTC . Weather information available at that time is displayed.

METAR/TAF

WINDSOR/ON    

METAR CYQG 210500Z AUTO 34019G30KT 9SM OVC038 03/M04 A3011 RMK SLP201=
METAR CYQG 210400Z AUTO 32020G34KT 9SM OVC040 03/M04 A3008 RMK SLP192=
METAR CYQG 210300Z AUTO 33015G27KT 9SM FEW050 03/M04 A3005 RMK SLP180=

TAF CYQG 210542Z 2106/2206 34015G30KT P6SM BKN040
BECMG 2107/2109 32010KT
FM211600 29010G20KT P6SM BKN025
BECMG 2118/2120 25010G20KT
BECMG 2121/2123 24008KT
FM220300 23006KT P6SM FEW030 BKN090
RMK FCST BASED ON AUTO OBS. NXT FCST BY 211200Z=

LONDON/ON    

METAR CYXU 210500Z 32011G16KT 15SM FEW060 02/M01 A2995 RMK SC2 SLP150=
METAR CYXU 210400Z 32011G19KT 280V350 15SM SCT050 02/00 A2992 RMK SC3 SLP139=
SPECI CYXU 210319Z 31012KT 15SM FEW130 03/M00 A2990 RMK AC2 SLP133=
METAR CYXU 210300Z 32009G17KT 15SM SCT130 03/M00 A2989 RMK AC4 SLP129=

TAF CYXU 210542Z 2106/2206 32010G20KT P6SM BKN040 TEMPO 2106/2108
SCT060
BECMG 2108/2110 34010KT
FM211500 28008KT P6SM BKN030 TEMPO 2115/2116 P6SM -SHSNRA
FM211600 28008KT P6SM -SHRA BKN020 TEMPO 2116/2119 P6SM NSW
BKN025
FM211900 28010G20KT P6SM BKN030
BECMG 2121/2123 25006KT
RMK NXT FCST BY 211200Z=

SARNIA (CHRIS HADFIELD)/ON    (show WxCam)

METAR CYZR 210500Z AUTO 32025G33KT 9SM BKN044 OVC055 03/M03 A3004 RMK SLP179=
METAR CYZR 210400Z AUTO 32024G33KT 9SM OVC055 03/M03 A3001 RMK SLP168=
METAR CYZR 210300Z AUTO 32019G32KT 9SM OVC055 03/M02 A2999 RMK SLP161=

*** REMARK        : Forecast period has ended; this was the last TAF issued
*** REMARQUE : La période de prévision est échue; ceci était le dernier TAF qui a été émis
TAF AMD CYZR 202116Z 2021/2102 35015G25KT P6SM BKN040 BKN100 TEMPO
2021/2024 3SM -SHRA BR BKN015 OVC040
BECMG 2021/2023 35020G35KT
FM210000 35020G35KT P6SM BKN040
RMK FCST BASED ON AUTO OBS. NXT FCST WILL BE ISSUED AT 210745Z=

KITCHENER/WATERLOO/ON    (show WxCam)

SPECI CYKF 210524Z AUTO 34012G18KT 9SM BKN026 BKN055 02/M01 A2992 RMK SLP139=
SPECI CYKF 210521Z AUTO 34012G18KT 9SM BKN024 BKN029 OVC055 02/M01 A2991 RMK SLP138=
METAR CYKF 210500Z AUTO 32013G23KT 9SM SCT027 BKN060 03/M02 A2990 RMK SLP133=
METAR CYKF 210400Z AUTO 32010G16KT 9SM BKN055 02/M01 A2986 RMK SLP121=
METAR CYKF 210300Z AUTO 33013G20KT 9SM FEW046 BKN060 OVC130 03/M01 A2984 RMK SLP112=

TAF CYKF 210138Z 2102/2114 32012G22KT P6SM FEW050 BKN120
FM210700 33012G22KT P6SM BKN030 TEMPO 2107/2110 BKN020
RMK FCST BASED ON AUTO OBS. NXT FCST BY 210800Z=

HAMILTON/ON    

METAR CYHM 210500Z 31007KT 15SM FEW060 02/M00 A2989 RMK SC2 SLP130=
METAR CYHM 210400Z 32012KT 15SM SCT059 BKN150 03/00 A2985 RMK SC4AC2 SLP116=
METAR CYHM 210300Z 32009KT 15SM FEW035 BKN130 04/01 A2981 RMK CF1AC6 CF TR SLP102=

TAF CYHM 210542Z 2106/2206 31007KT P6SM SCT060 TEMPO 2106/2108 BKN060
FM210800 32010G20KT P6SM BKN030 TEMPO 2108/2116 SCT030
FM211600 29010G20KT P6SM BKN040 TEMPO 2120/2124 P6SM -SHRA
BECMG 2122/2124 27010KT
FM220000 27010KT P6SM BKN030 BKN120
BECMG 2202/2204 23010KT
RMK NXT FCST BY 211200Z=

TORONTO/LESTER B. PEARSON INTL/ON    

METAR CYYZ 210500Z 33022G28KT 15SM SCT035 BKN050 03/M03 A2988 RMK SC4SC3 SLP124=
METAR CYYZ 210400Z 34013G20KT 15SM SCT042 BKN050 05/M05 A2984 RMK SC4SC3 SLP111=
METAR CYYZ 210300Z 36019G26KT 15SM OVC050 06/M03 A2981 RMK SC8 SLP100=

TAF CYYZ 210542Z 2106/2212 33015G28KT P6SM BKN050
FM210800 34012KT P6SM BKN030 TEMPO 2109/2114 P6SM -SHSN
FM211500 33010G20KT P6SM BKN030
FM211700 32010G20KT P6SM BKN040
FM212200 29010G20KT P6SM BKN030 TEMPO 2122/2124 P6SM -SHRA
FM220300 25008KT P6SM BKN030
RMK NXT FCST BY 210900Z=
Your time UTC time
Weather data provided by Environment Canada and NAV CANADA